Fieldale, VA (24089)

8:24 PM EST on February 11, 2016 (GMT -0500)
Horsepasture | | Change Station
CLOSE
Current Station
Personal Weather Station
Location: Martinsville, VA
Elevation: 1037 ft
Nearby Weather Stations

Elev 1037 ft 36.65 °N, 79.93 °W | Updated 17 seconds ago

Clear
Clear
28.9 °F
Feels Like 25 °F
N
3.8
Wind Variable Wind from NNE
Gusts 4.1 mph

Today
High -- | Low -- °F
--% Chance of Precip.
Yesterday
High -- | Low -- °F
Precip. -- in
Pressure 30.27 in
Visibility 10.0 miles
Clouds Clear
Windchill 25 °F
Dew Point 5 °F
Humidity 35%
Rainfall 0.02 in
Snow Depth Not available.
7:12 AM 5:55 PM
Waxing Crescent, 16% visible
METAR KMTV 120115Z AUTO 36005KT 10SM CLR M03/M17 A3027 RMK AO2 T10261171
Pressure 30.27 in
Visibility 10.0 miles
Clouds Clear
Windchill 25 °F
Dew Point 5 °F
Humidity 35%
Rainfall 0.02 in
Snow Depth Not available.
7:12 AM 5:55 PM
Waxing Crescent, 16% visible
METAR KMTV 120115Z AUTO 36005KT 10SM CLR M03/M17 A3027 RMK AO2 T10261171

10-Day Weather Forecast

Almanac

Astronomy

Feb. 11, 2016 Rise Set
Actual Time
Civil Twilight
Nautical Twilight
Astronomical Twilight
Moon
Length of Visible Light
Length of Day
Tomorrow will be .
, % of the Moon is Illuminated

Today's Extremes

State Highs State Lows

Community

WunderPhotos

Upload Photos

1,892,205 photos uploaded!

WunderBlog® & News

Nearby

Air Quality

  Air Quality AQ Index Pollutant
Not available.

Snow Depth

Station Depth Elevation

Earthquake Activity

City Distance Mag. Time & Date
Minimum magnitude displayed is 2.5.

Coastal Water Temperatures

Place Temperature

Stations

Nearby Weather Stations

Station Location Temp. Windchill Dew Point Humidity Wind Precip. Elev Updated Type
                   

Watches & Warnings

There are currently no watches in effect.